createdAt,value
2023-05-02T00:00:00.488Z,997.44
2023-05-02T00:05:00.180Z,997.52
2023-05-02T00:10:00.393Z,997.54
2023-05-02T00:15:00.180Z,997.49
2023-05-02T00:20:00.475Z,997.46
2023-05-02T00:25:00.131Z,997.48
2023-05-02T00:30:00.463Z,997.52
2023-05-02T00:35:00.170Z,997.46
2023-05-02T00:40:00.530Z,997.44
2023-05-02T00:45:00.137Z,997.53
2023-05-02T00:50:00.385Z,997.6
2023-05-02T00:55:00.146Z,997.44
2023-05-02T01:00:00.345Z,997.48
2023-05-02T01:05:00.170Z,997.59
2023-05-02T01:10:00.345Z,997.64
2023-05-02T01:15:00.168Z,997.66
2023-05-02T01:20:00.460Z,997.67
2023-05-02T01:25:00.139Z,997.61
2023-05-02T01:30:00.392Z,997.67
2023-05-02T01:35:00.156Z,997.73
2023-05-02T01:40:00.486Z,997.89
2023-05-02T01:45:00.177Z,997.95
2023-05-02T01:50:00.387Z,997.97
2023-05-02T01:55:00.131Z,998.02
2023-05-02T02:00:00.571Z,998.03
2023-05-02T02:05:00.175Z,997.95
2023-05-02T02:10:00.341Z,998.06
2023-05-02T02:15:00.146Z,998.09
2023-05-02T02:20:00.447Z,998.08
2023-05-02T02:25:00.146Z,998.11
2023-05-02T02:30:00.426Z,998.21
2023-05-02T02:35:00.143Z,998.26
2023-05-02T02:40:00.373Z,998.4
2023-05-02T02:45:00.149Z,998.4
2023-05-02T02:50:00.540Z,998.37
2023-05-02T02:55:00.156Z,998.52
2023-05-02T03:00:00.452Z,998.53
2023-05-02T03:05:00.174Z,998.61
2023-05-02T03:10:00.571Z,998.7
2023-05-02T03:15:00.137Z,998.79
2023-05-02T03:20:00.453Z,998.74
2023-05-02T03:25:00.146Z,998.74
2023-05-02T03:30:00.326Z,998.3
2023-05-02T03:35:00.128Z,998.33
2023-05-02T03:40:00.380Z,998.42
2023-05-02T03:45:00.126Z,998.51
2023-05-02T03:50:00.558Z,998.48
2023-05-02T03:55:00.175Z,998.57
2023-05-02T04:00:00.474Z,998.66
2023-05-02T04:05:00.135Z,998.64
2023-05-02T04:10:00.350Z,998.66
2023-05-02T04:15:00.153Z,998.81
2023-05-02T04:20:02.456Z,998.98
2023-05-02T04:25:00.148Z,999.09
2023-05-02T04:30:00.588Z,999.24
2023-05-02T04:35:00.170Z,999.28
2023-05-02T04:40:00.482Z,999.4
2023-05-02T04:45:00.170Z,999.47
2023-05-02T04:50:00.489Z,999.54
2023-05-02T04:55:00.169Z,999.56
2023-05-02T05:00:00.439Z,999.68
2023-05-02T05:05:00.207Z,999.73
2023-05-02T05:10:00.643Z,999.85
2023-05-02T05:15:00.135Z,999.96
2023-05-02T05:20:00.482Z,1000.08
2023-05-02T05:25:00.193Z,1000.18
2023-05-02T05:30:00.572Z,1000.23
2023-05-02T05:35:00.173Z,1000.29
2023-05-02T05:40:00.556Z,1000.37
2023-05-02T05:45:00.168Z,1000.39
2023-05-02T05:50:00.445Z,1000.51
2023-05-02T05:55:00.137Z,1000.58
2023-05-02T06:00:00.454Z,1000.81
2023-05-02T06:05:00.262Z,1000.93
2023-05-02T06:10:00.361Z,1000.93
2023-05-02T06:15:00.177Z,1001.04
2023-05-02T06:20:00.397Z,1001.11
2023-05-02T06:25:00.159Z,1001.13
2023-05-02T06:30:00.312Z,1001.23
2023-05-02T06:35:00.254Z,1001.21
2023-05-02T06:40:00.586Z,1001.38
2023-05-02T06:45:00.165Z,1001.46
2023-05-02T06:50:00.467Z,1001.57
2023-05-02T06:55:00.160Z,1001.66
2023-05-02T07:00:00.500Z,1001.77
2023-05-02T07:05:00.147Z,1001.94
2023-05-02T07:10:00.581Z,1002.02
2023-05-02T07:15:00.150Z,1002.05
2023-05-02T07:20:00.326Z,1002.07
2023-05-02T07:25:00.169Z,1002.17
2023-05-02T07:30:00.396Z,1002.17
2023-05-02T07:35:00.159Z,1002.25
2023-05-02T07:40:00.434Z,1002.42
2023-05-02T07:45:00.174Z,1002.35
2023-05-02T07:50:00.775Z,1002.4
2023-05-02T07:55:00.126Z,1002.4
2023-05-02T08:00:00.506Z,1002.61
2023-05-02T08:05:00.188Z,1002.57
2023-05-02T08:10:00.463Z,1002.66
2023-05-02T08:15:00.187Z,1002.68
2023-05-02T08:20:01.539Z,1002.76
2023-05-02T08:25:00.154Z,1002.87
2023-05-02T08:30:01.096Z,1002.89
2023-05-02T08:35:00.167Z,1002.96
2023-05-02T08:40:00.407Z,1003.01
2023-05-02T08:45:00.171Z,1003
2023-05-02T08:50:00.983Z,1003.05
2023-05-02T08:55:00.563Z,1003.13
2023-05-02T09:00:00.207Z,1003.16
2023-05-02T09:05:00.599Z,1003.31
2023-05-02T09:10:00.136Z,1003.39
2023-05-02T09:15:00.426Z,1003.47
2023-05-02T09:20:00.214Z,1003.52
2023-05-02T09:25:00.363Z,1003.52
2023-05-02T09:30:00.241Z,1003.49
2023-05-02T09:35:00.306Z,1003.48
2023-05-02T09:40:00.212Z,1003.52
2023-05-02T09:45:00.448Z,1003.44
2023-05-02T09:50:00.162Z,1003.45
2023-05-02T09:55:00.367Z,1003.52
2023-05-02T10:00:00.190Z,1003.55
2023-05-02T10:05:00.400Z,1003.64
2023-05-02T10:10:00.148Z,1003.61
2023-05-02T10:15:00.597Z,1003.69
2023-05-02T10:20:00.231Z,1003.67
2023-05-02T10:25:00.393Z,1003.73
2023-05-02T10:30:00.183Z,1003.78
2023-05-02T10:35:00.386Z,1003.82
2023-05-02T10:40:00.159Z,1003.73
2023-05-02T10:45:00.467Z,1003.75
2023-05-02T10:50:00.197Z,1003.71
2023-05-02T10:55:00.368Z,1003.7
2023-05-02T11:00:00.192Z,1003.73
2023-05-02T11:05:00.562Z,1003.63
2023-05-02T11:10:00.152Z,1003.69
2023-05-02T11:15:00.591Z,1003.69
2023-05-02T11:20:00.225Z,1003.69
2023-05-02T11:25:00.402Z,1003.74
2023-05-02T11:30:00.270Z,1003.8
2023-05-02T11:35:00.508Z,1003.74
2023-05-02T11:40:00.117Z,1003.85
2023-05-02T11:45:00.324Z,1004.01
2023-05-02T11:50:00.253Z,1004.02
2023-05-02T11:55:00.283Z,1004.13
2023-05-02T12:00:00.168Z,1004.23
2023-05-02T12:05:00.395Z,1004.43
2023-05-02T12:10:00.268Z,1004.4
2023-05-02T12:15:00.330Z,1004.58
2023-05-02T12:20:00.225Z,1004.64
2023-05-02T12:25:00.456Z,1004.69
2023-05-02T12:30:00.481Z,1004.69
2023-05-02T12:35:00.188Z,1004.67
2023-05-02T12:40:00.237Z,1004.64
2023-05-02T12:45:00.218Z,1004.76
2023-05-02T12:50:00.386Z,1004.86
2023-05-02T12:55:00.241Z,1004.88
2023-05-02T13:00:00.544Z,1004.8
2023-05-02T13:05:00.164Z,1004.83
2023-05-02T13:10:00.683Z,1004.85
2023-05-02T13:15:00.242Z,1004.91
2023-05-02T13:20:01.763Z,1004.91
2023-05-02T13:25:00.159Z,1004.99
2023-05-02T13:30:00.469Z,1005.08
2023-05-02T13:35:00.173Z,1005.07
2023-05-02T13:40:00.419Z,1005.21
2023-05-02T13:45:00.157Z,1005.2
2023-05-02T13:50:00.803Z,1005.22
2023-05-02T13:55:00.195Z,1005.31
2023-05-02T14:00:00.578Z,1005.35
2023-05-02T14:05:00.183Z,1005.37
2023-05-02T14:10:00.599Z,1005.43
2023-05-02T14:15:00.152Z,1005.46
2023-05-02T14:20:00.485Z,1005.5
2023-05-02T14:25:00.147Z,1005.44
2023-05-02T14:30:00.790Z,1005.5
2023-05-02T14:35:00.150Z,1005.43
2023-05-02T14:40:00.269Z,1005.48
2023-05-02T14:45:00.154Z,1005.48
2023-05-02T14:50:00.519Z,1005.49
2023-05-02T14:55:00.149Z,1005.51
2023-05-02T15:00:00.326Z,1005.51
2023-05-02T15:05:00.188Z,1005.6
2023-05-02T15:10:00.464Z,1005.67
2023-05-02T15:15:00.154Z,1005.72
2023-05-02T15:20:00.368Z,1005.69
2023-05-02T15:25:00.880Z,1005.66
2023-05-02T15:30:00.398Z,1005.69
2023-05-02T15:35:00.206Z,1005.88
2023-05-02T15:40:00.434Z,1005.9
2023-05-02T15:45:00.179Z,1005.81
2023-05-02T15:50:00.402Z,1005.93
2023-05-02T15:55:00.129Z,1006.02
2023-05-02T16:00:00.383Z,1006.1
2023-05-02T16:05:00.223Z,1006.07
2023-05-02T16:10:00.564Z,1006.14
2023-05-02T16:15:01.787Z,1006.18
2023-05-02T16:20:00.502Z,1006.18
2023-05-02T16:25:00.175Z,1006.23
2023-05-02T16:30:00.495Z,1006.27
2023-05-02T16:35:00.155Z,1006.33
2023-05-02T16:40:00.294Z,1006.38
2023-05-02T16:45:00.187Z,1006.47
2023-05-02T16:50:00.360Z,1006.5
2023-05-02T16:55:00.124Z,1006.56
2023-05-02T17:00:00.694Z,1006.67
2023-05-02T17:05:00.266Z,1006.62
2023-05-02T17:10:00.414Z,1006.74
2023-05-02T17:15:01.527Z,1006.8
2023-05-02T17:20:00.470Z,1006.95
2023-05-02T17:25:00.163Z,1007.01
2023-05-02T17:30:00.724Z,1007.06
2023-05-02T17:35:00.192Z,1007.07
2023-05-02T17:40:00.391Z,1007.2
2023-05-02T17:45:00.185Z,1007.19
2023-05-02T17:50:00.592Z,1007.24
2023-05-02T17:55:00.144Z,1007.27
2023-05-02T18:00:00.653Z,1007.33
2023-05-02T18:05:00.246Z,1007.37
2023-05-02T18:10:00.492Z,1007.58
2023-05-02T18:15:00.577Z,1007.55
2023-05-02T18:20:00.649Z,1007.53
2023-05-02T18:25:00.314Z,1007.47
2023-05-02T18:30:00.224Z,1007.62
2023-05-02T18:35:00.407Z,1007.64
2023-05-02T18:40:00.149Z,1007.59
2023-05-02T18:45:00.576Z,1007.67
2023-05-02T18:50:00.183Z,1007.81
2023-05-02T18:55:00.252Z,1007.79
2023-05-02T19:00:00.259Z,1007.81
2023-05-02T19:05:00.539Z,1007.8
2023-05-02T19:10:00.254Z,1007.82
2023-05-02T19:15:00.465Z,1007.93
2023-05-02T19:20:00.279Z,1007.92
2023-05-02T19:25:00.374Z,1008.04
2023-05-02T19:30:00.207Z,1008.1
2023-05-02T19:35:00.424Z,1008.13
2023-05-02T19:40:00.193Z,1008.16
2023-05-02T19:45:00.487Z,1008.18
2023-05-02T19:50:00.224Z,1008.23
2023-05-02T19:55:00.327Z,1008.25
2023-05-02T20:00:00.363Z,1008.2
2023-05-02T20:05:00.176Z,1008.29
2023-05-02T20:10:00.536Z,1008.3
2023-05-02T20:15:00.107Z,1008.37
2023-05-02T20:20:00.395Z,1008.38
2023-05-02T20:25:00.186Z,1008.48
2023-05-02T20:30:00.420Z,1008.96
2023-05-02T20:35:00.205Z,1008.97
2023-05-02T20:40:00.372Z,1009.02
2023-05-02T20:45:00.186Z,1009.14
2023-05-02T20:50:00.342Z,1009.2
2023-05-02T20:55:00.220Z,1009.15
2023-05-02T21:00:00.687Z,1009.19
2023-05-02T21:05:00.208Z,1009.19
2023-05-02T21:10:00.461Z,1009.21
2023-05-02T21:15:00.160Z,1009.38
2023-05-02T21:20:00.237Z,1009.33
2023-05-02T21:25:00.129Z,1009.41
2023-05-02T21:30:00.668Z,1009.39
2023-05-02T21:35:00.270Z,1009.28
2023-05-02T21:40:00.516Z,1009.36
2023-05-02T21:45:00.149Z,1009.42
2023-05-02T21:50:00.548Z,1009.49
2023-05-02T21:55:00.136Z,1009.43
2023-05-02T22:00:00.680Z,1009.38
2023-05-02T22:05:00.178Z,1009.42
2023-05-02T22:10:00.362Z,1009.5
2023-05-02T22:15:00.168Z,1009.58
2023-05-02T22:20:00.258Z,1009.6
2023-05-02T22:25:00.151Z,1009.72
2023-05-02T22:30:00.595Z,1009.6
2023-05-02T22:35:00.138Z,1009.69
2023-05-02T22:40:00.409Z,1009.72
2023-05-02T22:45:00.180Z,1009.76
2023-05-02T22:50:00.504Z,1009.81
2023-05-02T22:55:00.150Z,1009.87
2023-05-02T23:00:00.602Z,1009.85
2023-05-02T23:05:00.158Z,1009.97
2023-05-02T23:10:00.427Z,1009.91
2023-05-02T23:15:00.195Z,1009.9
2023-05-02T23:20:00.508Z,1009.9
2023-05-02T23:25:00.164Z,1009.94
2023-05-02T23:30:00.663Z,1009.98
2023-05-02T23:35:00.200Z,1010.03
2023-05-02T23:40:00.347Z,1010.03
2023-05-02T23:45:00.121Z,1010.06
2023-05-02T23:50:00.514Z,1010.06
2023-05-02T23:55:00.135Z,1010.03
